Terminal Aerodrome Forecast
Issued by NWS

Home | Current Version | Previous Version | Text Only | Print | Product List | Glossary On
Versions: 1 2 3 4 5 6 7 8 9 10 11 12 13 14 15 16 17 18 19 20 21 22 23 24 25 26
000
FTUS45 KGJT 300520
TAFVEL
TAF
KVEL 300520Z 3006/3106 00000KT P6SM FEW030 SCT050 SCT080
     FM301200 06005KT P6SM VCSH BKN100
     FM302000 35010G20KT P6SM VCTS SCT070CB BKN120
     FM310000 01012G20KT P6SM OVC250=

USA.gov is the U.S. government's official web portal to all federal, state and local government web resources and services.